sensor_id;sensor_type;location;lat;lon;timestamp;pressure;altitude;pressure_sealevel;temperature;humidity
550;BME280;20066;48.764;9.176;2023-04-05T00:02:11;98747.13;;;6.03;44.41
550;BME280;20066;48.764;9.176;2023-04-05T00:04:39;98746.59;;;6.26;44.47
550;BME280;20066;48.764;9.176;2023-04-05T00:07:16;98742.56;;;6.04;44.34
550;BME280;20066;48.764;9.176;2023-04-05T00:09:46;98742.75;;;6.11;44.34
550;BME280;20066;48.764;9.176;2023-04-05T00:12:14;98745.16;;;6.44;44.17
550;BME280;20066;48.764;9.176;2023-04-05T00:14:42;98743.53;;;6.39;43.67
550;BME280;20066;48.764;9.176;2023-04-05T00:17:10;98743.78;;;6.06;44.95
550;BME280;20066;48.764;9.176;2023-04-05T00:19:38;98734.16;;;5.90;44.59
550;BME280;20066;48.764;9.176;2023-04-05T00:22:06;98730.22;;;5.99;45.36
550;BME280;20066;48.764;9.176;2023-04-05T00:24:36;98726.31;;;5.69;46.01
550;BME280;20066;48.764;9.176;2023-04-05T00:27:08;98721.88;;;6.01;45.75
550;BME280;20066;48.764;9.176;2023-04-05T00:29:36;98727.38;;;5.92;45.65
550;BME280;20066;48.764;9.176;2023-04-05T00:32:04;98716.97;;;5.63;46.65
550;BME280;20066;48.764;9.176;2023-04-05T00:34:32;98712.72;;;5.74;45.59
550;BME280;20066;48.764;9.176;2023-04-05T00:36:59;98716.56;;;5.89;45.96
550;BME280;20066;48.764;9.176;2023-04-05T00:39:27;98710.78;;;5.87;45.74
550;BME280;20066;48.764;9.176;2023-04-05T00:41:55;98712.06;;;6.05;45.81
550;BME280;20066;48.764;9.176;2023-04-05T00:44:24;98711.75;;;6.06;44.97
550;BME280;20066;48.764;9.176;2023-04-05T00:46:52;98706.69;;;5.89;45.24
550;BME280;20066;48.764;9.176;2023-04-05T00:49:19;98703.91;;;6.13;45.07
550;BME280;20066;48.764;9.176;2023-04-05T00:51:47;98706.09;;;6.23;45.45
550;BME280;20066;48.764;9.176;2023-04-05T00:54:17;98698.53;;;5.98;44.49
550;BME280;20066;48.764;9.176;2023-04-05T00:56:45;98697.09;;;5.60;45.18
550;BME280;20066;48.764;9.176;2023-04-05T00:59:13;98688.19;;;5.56;45.38
550;BME280;20066;48.764;9.176;2023-04-05T01:01:42;98691.66;;;5.57;45.65
550;BME280;20066;48.764;9.176;2023-04-05T01:04:21;98681.94;;;5.76;45.03
550;BME280;20066;48.764;9.176;2023-04-05T01:06:59;98687.66;;;5.91;45.49
550;BME280;20066;48.764;9.176;2023-04-05T01:09:37;98684.00;;;6.11;44.75
550;BME280;20066;48.764;9.176;2023-04-05T01:12:11;98679.25;;;6.04;45.36
550;BME280;20066;48.764;9.176;2023-04-05T01:14:44;98680.44;;;5.91;45.16
550;BME280;20066;48.764;9.176;2023-04-05T01:17:13;98681.56;;;5.78;45.81
550;BME280;20066;48.764;9.176;2023-04-05T01:19:41;98677.56;;;5.84;45.98
550;BME280;20066;48.764;9.176;2023-04-05T01:22:52;98673.38;;;5.71;46.67
550;BME280;20066;48.764;9.176;2023-04-05T01:31:45;98663.13;;;5.73;45.66
550;BME280;20066;48.764;9.176;2023-04-05T01:34:22;98653.22;;;5.45;46.64
550;BME280;20066;48.764;9.176;2023-04-05T01:36:55;98659.03;;;5.35;46.17
550;BME280;20066;48.764;9.176;2023-04-05T01:39:24;98651.91;;;5.39;46.82
550;BME280;20066;48.764;9.176;2023-04-05T01:41:57;98652.75;;;5.56;46.29
550;BME280;20066;48.764;9.176;2023-04-05T01:44:25;98660.09;;;5.59;45.87
550;BME280;20066;48.764;9.176;2023-04-05T01:46:54;98662.69;;;5.71;45.19
550;BME280;20066;48.764;9.176;2023-04-05T01:49:22;98654.94;;;5.66;46.04
550;BME280;20066;48.764;9.176;2023-04-05T01:51:50;98654.13;;;5.77;45.77
550;BME280;20066;48.764;9.176;2023-04-05T01:54:18;98655.41;;;5.16;44.85
550;BME280;20066;48.764;9.176;2023-04-05T01:56:46;98650.66;;;4.85;46.65
550;BME280;20066;48.764;9.176;2023-04-05T01:59:14;98651.31;;;5.06;46.35
550;BME280;20066;48.764;9.176;2023-04-05T02:01:41;98656.41;;;4.99;46.71
550;BME280;20066;48.764;9.176;2023-04-05T02:04:10;98643.31;;;4.82;47.59
550;BME280;20066;48.764;9.176;2023-04-05T02:06:38;98647.38;;;5.28;46.43
550;BME280;20066;48.764;9.176;2023-04-05T02:09:07;98637.72;;;5.23;46.30
550;BME280;20066;48.764;9.176;2023-04-05T02:11:35;98642.97;;;5.60;45.91
550;BME280;20066;48.764;9.176;2023-04-05T02:14:03;98637.56;;;5.44;45.71
550;BME280;20066;48.764;9.176;2023-04-05T02:16:34;98636.50;;;5.61;45.43
550;BME280;20066;48.764;9.176;2023-04-05T02:19:02;98639.09;;;5.05;47.74
550;BME280;20066;48.764;9.176;2023-04-05T02:21:32;98634.50;;;5.18;47.99
550;BME280;20066;48.764;9.176;2023-04-05T02:24:02;98635.06;;;5.23;47.55
550;BME280;20066;48.764;9.176;2023-04-05T02:26:30;98640.59;;;5.30;46.92
550;BME280;20066;48.764;9.176;2023-04-05T02:28:57;98632.97;;;5.04;47.73
550;BME280;20066;48.764;9.176;2023-04-05T02:31:25;98631.13;;;5.45;46.93
550;BME280;20066;48.764;9.176;2023-04-05T02:33:53;98629.56;;;5.44;46.57
550;BME280;20066;48.764;9.176;2023-04-05T02:36:21;98625.69;;;5.69;46.46
550;BME280;20066;48.764;9.176;2023-04-05T02:38:51;98631.75;;;5.82;45.31
550;BME280;20066;48.764;9.176;2023-04-05T02:41:18;98631.03;;;5.69;45.97
550;BME280;20066;48.764;9.176;2023-04-05T02:43:48;98633.91;;;5.36;46.50
550;BME280;20066;48.764;9.176;2023-04-05T02:46:16;98632.03;;;5.25;47.39
550;BME280;20066;48.764;9.176;2023-04-05T02:48:44;98625.91;;;5.36;47.70
550;BME280;20066;48.764;9.176;2023-04-05T02:51:12;98631.72;;;5.26;46.62
550;BME280;20066;48.764;9.176;2023-04-05T02:53:40;98623.75;;;5.14;47.39
550;BME280;20066;48.764;9.176;2023-04-05T02:56:11;98629.81;;;5.39;47.41
550;BME280;20066;48.764;9.176;2023-04-05T02:58:39;98620.97;;;5.51;46.39
550;BME280;20066;48.764;9.176;2023-04-05T03:01:07;98615.53;;;5.47;46.98
550;BME280;20066;48.764;9.176;2023-04-05T03:03:35;98626.50;;;5.30;46.75
550;BME280;20066;48.764;9.176;2023-04-05T03:06:06;98628.06;;;5.19;48.05
550;BME280;20066;48.764;9.176;2023-04-05T03:08:36;98626.94;;;5.20;47.37
550;BME280;20066;48.764;9.176;2023-04-05T03:11:04;98624.44;;;4.87;48.73
550;BME280;20066;48.764;9.176;2023-04-05T03:13:33;98625.50;;;5.22;47.23
550;BME280;20066;48.764;9.176;2023-04-05T03:16:01;98619.13;;;5.39;46.60
550;BME280;20066;48.764;9.176;2023-04-05T03:18:29;98623.34;;;5.40;47.08
550;BME280;20066;48.764;9.176;2023-04-05T03:20:57;98616.50;;;5.27;47.10
550;BME280;20066;48.764;9.176;2023-04-05T03:23:26;98612.22;;;4.86;48.27
550;BME280;20066;48.764;9.176;2023-04-05T03:25:57;98613.41;;;5.00;47.77
550;BME280;20066;48.764;9.176;2023-04-05T03:28:26;98616.75;;;5.10;47.61
550;BME280;20066;48.764;9.176;2023-04-05T03:30:55;98619.53;;;5.01;48.20
550;BME280;20066;48.764;9.176;2023-04-05T03:33:23;98613.69;;;4.83;48.59
550;BME280;20066;48.764;9.176;2023-04-05T03:35:51;98615.22;;;4.72;49.45
550;BME280;20066;48.764;9.176;2023-04-05T03:38:18;98618.09;;;4.79;48.38
550;BME280;20066;48.764;9.176;2023-04-05T03:40:47;98622.56;;;4.75;48.74
550;BME280;20066;48.764;9.176;2023-04-05T03:43:14;98610.56;;;4.81;48.55
550;BME280;20066;48.764;9.176;2023-04-05T03:45:42;98618.22;;;4.95;48.14
550;BME280;20066;48.764;9.176;2023-04-05T03:48:11;98615.78;;;4.78;49.27
550;BME280;20066;48.764;9.176;2023-04-05T03:50:39;98613.00;;;4.74;48.74
550;BME280;20066;48.764;9.176;2023-04-05T03:53:07;98621.44;;;4.88;48.95
550;BME280;20066;48.764;9.176;2023-04-05T03:55:35;98612.00;;;4.91;48.68
550;BME280;20066;48.764;9.176;2023-04-05T03:58:02;98608.47;;;4.75;48.30
550;BME280;20066;48.764;9.176;2023-04-05T04:00:30;98607.66;;;4.86;48.93
550;BME280;20066;48.764;9.176;2023-04-05T04:02:58;98612.31;;;5.01;48.84
550;BME280;20066;48.764;9.176;2023-04-05T04:05:28;98610.34;;;4.74;48.05
550;BME280;20066;48.764;9.176;2023-04-05T04:07:56;98602.81;;;4.76;49.00
550;BME280;20066;48.764;9.176;2023-04-05T04:10:24;98615.13;;;4.56;49.09
550;BME280;20066;48.764;9.176;2023-04-05T04:12:52;98607.13;;;4.81;49.04
550;BME280;20066;48.764;9.176;2023-04-05T04:15:20;98609.81;;;4.68;48.75
550;BME280;20066;48.764;9.176;2023-04-05T04:17:47;98609.06;;;4.23;49.99
550;BME280;20066;48.764;9.176;2023-04-05T04:20:15;98616.88;;;4.40;49.50
550;BME280;20066;48.764;9.176;2023-04-05T04:22:44;98608.22;;;4.55;49.11
550;BME280;20066;48.764;9.176;2023-04-05T04:25:14;98614.56;;;4.75;48.89
550;BME280;20066;48.764;9.176;2023-04-05T04:27:44;98613.44;;;4.88;47.95
550;BME280;20066;48.764;9.176;2023-04-05T04:30:14;98614.00;;;4.82;48.49
550;BME280;20066;48.764;9.176;2023-04-05T04:32:42;98615.34;;;4.76;48.23
550;BME280;20066;48.764;9.176;2023-04-05T04:35:20;98612.78;;;4.55;49.60
550;BME280;20066;48.764;9.176;2023-04-05T04:37:54;98608.81;;;4.61;49.66
550;BME280;20066;48.764;9.176;2023-04-05T04:40:24;98611.34;;;4.45;49.46
550;BME280;20066;48.764;9.176;2023-04-05T04:42:55;98610.22;;;4.46;49.35
550;BME280;20066;48.764;9.176;2023-04-05T04:45:24;98608.69;;;4.45;49.85
550;BME280;20066;48.764;9.176;2023-04-05T04:47:52;98609.22;;;4.39;49.46
550;BME280;20066;48.764;9.176;2023-04-05T04:50:20;98613.44;;;4.40;50.45
550;BME280;20066;48.764;9.176;2023-04-05T04:52:49;98614.00;;;4.00;51.56
550;BME280;20066;48.764;9.176;2023-04-05T04:55:19;98616.72;;;4.12;50.53
550;BME280;20066;48.764;9.176;2023-04-05T04:57:51;98622.38;;;4.23;50.42
550;BME280;20066;48.764;9.176;2023-04-05T05:00:20;98623.50;;;4.22;50.10
550;BME280;20066;48.764;9.176;2023-04-05T05:02:49;98614.72;;;3.76;52.01
550;BME280;20066;48.764;9.176;2023-04-05T05:05:18;98615.06;;;4.20;50.09
550;BME280;20066;48.764;9.176;2023-04-05T05:07:48;98624.53;;;3.97;51.06
550;BME280;20066;48.764;9.176;2023-04-05T05:10:20;98625.25;;;4.18;50.71
550;BME280;20066;48.764;9.176;2023-04-05T05:12:48;98630.09;;;4.04;50.41
550;BME280;20066;48.764;9.176;2023-04-05T05:15:17;98631.53;;;4.01;50.22
550;BME280;20066;48.764;9.176;2023-04-05T05:17:45;98632.31;;;4.02;50.60
550;BME280;20066;48.764;9.176;2023-04-05T05:20:18;98636.03;;;4.21;49.74
550;BME280;20066;48.764;9.176;2023-04-05T05:22:46;98634.41;;;3.96;50.59
550;BME280;20066;48.764;9.176;2023-04-05T05:25:15;98625.47;;;4.13;51.21
550;BME280;20066;48.764;9.176;2023-04-05T05:27:47;98631.81;;;4.20;50.37
550;BME280;20066;48.764;9.176;2023-04-05T05:30:15;98636.19;;;4.49;49.46
550;BME280;20066;48.764;9.176;2023-04-05T05:32:43;98633.88;;;4.60;50.42
550;BME280;20066;48.764;9.176;2023-04-05T05:35:11;98631.31;;;4.63;49.61
550;BME280;20066;48.764;9.176;2023-04-05T05:37:39;98623.72;;;4.29;50.47
550;BME280;20066;48.764;9.176;2023-04-05T05:40:07;98622.22;;;4.52;50.18
550;BME280;20066;48.764;9.176;2023-04-05T05:42:35;98626.88;;;4.55;49.78
550;BME280;20066;48.764;9.176;2023-04-05T05:45:05;98619.00;;;4.59;50.12
550;BME280;20066;48.764;9.176;2023-04-05T05:47:33;98623.75;;;4.41;50.75
550;BME280;20066;48.764;9.176;2023-04-05T05:50:01;98622.63;;;4.30;51.41
550;BME280;20066;48.764;9.176;2023-04-05T05:52:29;98620.09;;;4.70;49.56
550;BME280;20066;48.764;9.176;2023-04-05T05:54:57;98624.75;;;4.49;50.16
550;BME280;20066;48.764;9.176;2023-04-05T05:57:25;98624.56;;;4.54;50.83
550;BME280;20066;48.764;9.176;2023-04-05T05:59:53;98630.44;;;4.72;49.46
550;BME280;20066;48.764;9.176;2023-04-05T06:02:22;98623.22;;;4.72;50.64
550;BME280;20066;48.764;9.176;2023-04-05T06:04:49;98629.09;;;4.90;49.49
550;BME280;20066;48.764;9.176;2023-04-05T06:07:17;98628.88;;;4.71;49.97
550;BME280;20066;48.764;9.176;2023-04-05T06:09:45;98628.97;;;5.11;49.24
550;BME280;20066;48.764;9.176;2023-04-05T06:12:13;98635.41;;;5.22;48.12
550;BME280;20066;48.764;9.176;2023-04-05T06:14:41;98643.31;;;5.06;48.70
550;BME280;20066;48.764;9.176;2023-04-05T06:17:08;98632.06;;;5.00;49.15
550;BME280;20066;48.764;9.176;2023-04-05T06:19:38;98636.88;;;4.95;48.98
550;BME280;20066;48.764;9.176;2023-04-05T06:22:06;98629.84;;;3.64;51.75
550;BME280;20066;48.764;9.176;2023-04-05T06:24:33;98633.66;;;3.54;53.32
550;BME280;20066;48.764;9.176;2023-04-05T06:27:01;98634.59;;;2.87;55.48
550;BME280;20066;48.764;9.176;2023-04-05T06:29:29;98633.88;;;3.28;54.91
550;BME280;20066;48.764;9.176;2023-04-05T06:31:57;98634.22;;;3.80;53.17
550;BME280;20066;48.764;9.176;2023-04-05T06:34:25;98632.34;;;4.14;52.29
550;BME280;20066;48.764;9.176;2023-04-05T06:36:54;98633.38;;;4.34;52.10
550;BME280;20066;48.764;9.176;2023-04-05T06:39:22;98625.41;;;3.88;52.35
550;BME280;20066;48.764;9.176;2023-04-05T06:41:50;98638.53;;;4.63;50.98
550;BME280;20066;48.764;9.176;2023-04-05T06:44:18;98641.00;;;4.92;49.89
550;BME280;20066;48.764;9.176;2023-04-05T06:46:45;98637.06;;;5.02;49.38
550;BME280;20066;48.764;9.176;2023-04-05T06:49:13;98634.63;;;4.48;50.11
550;BME280;20066;48.764;9.176;2023-04-05T06:51:41;98640.50;;;4.42;50.56
550;BME280;20066;48.764;9.176;2023-04-05T06:54:10;98639.31;;;4.88;49.75
550;BME280;20066;48.764;9.176;2023-04-05T06:56:38;98642.31;;;4.74;50.45
550;BME280;20066;48.764;9.176;2023-04-05T06:59:06;98634.53;;;4.93;50.15
550;BME280;20066;48.764;9.176;2023-04-05T07:01:33;98639.91;;;5.33;48.72
550;BME280;20066;48.764;9.176;2023-04-05T07:04:01;98639.06;;;5.57;47.89
550;BME280;20066;48.764;9.176;2023-04-05T07:06:29;98640.81;;;5.25;48.18
550;BME280;20066;48.764;9.176;2023-04-05T07:08:59;98641.06;;;5.20;48.71
550;BME280;20066;48.764;9.176;2023-04-05T07:11:28;98639.84;;;5.58;47.69
550;BME280;20066;48.764;9.176;2023-04-05T07:13:58;98641.94;;;5.64;47.02
550;BME280;20066;48.764;9.176;2023-04-05T07:16:26;98652.06;;;5.87;46.45
550;BME280;20066;48.764;9.176;2023-04-05T07:18:55;98650.28;;;5.91;46.41
550;BME280;20066;48.764;9.176;2023-04-05T07:21:23;98652.66;;;6.08;46.59
550;BME280;20066;48.764;9.176;2023-04-05T07:23:53;98641.94;;;5.92;46.41
550;BME280;20066;48.764;9.176;2023-04-05T07:26:23;98642.25;;;5.63;46.50
550;BME280;20066;48.764;9.176;2023-04-05T07:28:53;98638.00;;;4.12;51.21
550;BME280;20066;48.764;9.176;2023-04-05T07:31:21;98639.84;;;4.93;49.68
550;BME280;20066;48.764;9.176;2023-04-05T07:33:49;98641.91;;;5.76;48.18
550;BME280;20066;48.764;9.176;2023-04-05T07:36:17;98636.13;;;5.74;47.51
550;BME280;20066;48.764;9.176;2023-04-05T07:38:45;98636.00;;;5.43;46.72
550;BME280;20066;48.764;9.176;2023-04-05T07:41:13;98637.69;;;5.75;46.22
550;BME280;20066;48.764;9.176;2023-04-05T07:43:42;98638.88;;;5.50;48.19
550;BME280;20066;48.764;9.176;2023-04-05T07:46:11;98638.34;;;7.84;43.27
550;BME280;20066;48.764;9.176;2023-04-05T07:48:39;98643.44;;;11.25;37.14
550;BME280;20066;48.764;9.176;2023-04-05T07:51:08;98646.28;;;11.49;35.57
550;BME280;20066;48.764;9.176;2023-04-05T07:53:36;98650.81;;;12.67;32.71
550;BME280;20066;48.764;9.176;2023-04-05T07:56:05;98642.72;;;14.74;30.43
550;BME280;20066;48.764;9.176;2023-04-05T07:58:33;98654.25;;;16.51;27.95
550;BME280;20066;48.764;9.176;2023-04-05T08:01:02;98657.63;;;16.32;27.76
550;BME280;20066;48.764;9.176;2023-04-05T08:03:32;98651.41;;;18.43;24.31
550;BME280;20066;48.764;9.176;2023-04-05T08:06:08;98653.28;;;18.30;24.50
550;BME280;20066;48.764;9.176;2023-04-05T08:08:37;98648.44;;;15.61;27.61
550;BME280;20066;48.764;9.176;2023-04-05T08:11:05;98644.91;;;17.45;25.09
550;BME280;20066;48.764;9.176;2023-04-05T08:13:32;98647.03;;;18.13;23.92
550;BME280;20066;48.764;9.176;2023-04-05T08:16:02;98642.47;;;17.51;24.79
550;BME280;20066;48.764;9.176;2023-04-05T08:18:29;98648.69;;;17.51;24.44
550;BME280;20066;48.764;9.176;2023-04-05T08:20:59;98646.69;;;15.78;26.20
550;BME280;20066;48.764;9.176;2023-04-05T08:23:27;98642.84;;;18.44;24.50
550;BME280;20066;48.764;9.176;2023-04-05T08:25:54;98631.16;;;13.06;29.06
550;BME280;20066;48.764;9.176;2023-04-05T08:28:22;98639.22;;;16.19;25.79
550;BME280;20066;48.764;9.176;2023-04-05T08:30:52;98636.78;;;16.25;25.38
550;BME280;20066;48.764;9.176;2023-04-05T08:33:20;98635.38;;;12.29;29.98
550;BME280;20066;48.764;9.176;2023-04-05T08:35:47;98632.38;;;14.61;28.01
550;BME280;20066;48.764;9.176;2023-04-05T08:38:17;98633.50;;;12.97;28.39
550;BME280;20066;48.764;9.176;2023-04-05T08:40:45;98630.06;;;13.98;27.69
550;BME280;20066;48.764;9.176;2023-04-05T08:43:17;98634.34;;;14.54;27.99
550;BME280;20066;48.764;9.176;2023-04-05T08:45:50;98638.59;;;14.55;27.34
550;BME280;20066;48.764;9.176;2023-04-05T08:48:18;98641.19;;;16.42;24.25
550;BME280;20066;48.764;9.176;2023-04-05T08:50:50;98640.00;;;18.16;23.35
550;BME280;20066;48.764;9.176;2023-04-05T08:53:19;98649.94;;;20.31;20.76
550;BME280;20066;48.764;9.176;2023-04-05T08:55:48;98640.78;;;18.97;20.75
550;BME280;20066;48.764;9.176;2023-04-05T08:58:19;98642.50;;;14.98;26.29
550;BME280;20066;48.764;9.176;2023-04-05T09:00:49;98636.22;;;14.64;25.73
550;BME280;20066;48.764;9.176;2023-04-05T09:03:20;98638.78;;;11.21;29.54
550;BME280;20066;48.764;9.176;2023-04-05T09:05:50;98632.97;;;14.83;26.04
550;BME280;20066;48.764;9.176;2023-04-05T09:08:19;98631.94;;;15.08;25.33
550;BME280;20066;48.764;9.176;2023-04-05T09:10:48;98630.81;;;14.64;25.55
550;BME280;20066;48.764;9.176;2023-04-05T09:13:18;98629.63;;;12.69;25.99
550;BME280;20066;48.764;9.176;2023-04-05T09:15:47;98631.19;;;12.95;26.57
550;BME280;20066;48.764;9.176;2023-04-05T09:18:15;98630.00;;;13.00;25.53
550;BME280;20066;48.764;9.176;2023-04-05T09:20:55;98629.31;;;10.83;29.57
550;BME280;20066;48.764;9.176;2023-04-05T09:23:25;98632.91;;;14.39;24.79
550;BME280;20066;48.764;9.176;2023-04-05T09:25:53;98635.41;;;12.54;26.35
550;BME280;20066;48.764;9.176;2023-04-05T09:28:20;98634.03;;;14.93;24.03
550;BME280;20066;48.764;9.176;2023-04-05T09:30:48;98623.59;;;14.47;24.93
550;BME280;20066;48.764;9.176;2023-04-05T09:33:18;98631.84;;;11.89;26.97
550;BME280;20066;48.764;9.176;2023-04-05T09:35:49;98627.28;;;13.18;26.73
550;BME280;20066;48.764;9.176;2023-04-05T09:38:17;98629.75;;;14.95;23.63
550;BME280;20066;48.764;9.176;2023-04-05T09:40:47;98632.03;;;15.41;23.95
550;BME280;20066;48.764;9.176;2023-04-05T09:43:36;98633.47;;;12.44;27.08
550;BME280;20066;48.764;9.176;2023-04-05T09:46:04;98625.38;;;12.58;27.76
550;BME280;20066;48.764;9.176;2023-04-05T09:48:45;98629.88;;;9.82;29.91
550;BME280;20066;48.764;9.176;2023-04-05T09:51:13;98634.47;;;11.72;27.17
550;BME280;20066;48.764;9.176;2023-04-05T09:53:55;98622.41;;;10.82;28.28
550;BME280;20066;48.764;9.176;2023-04-05T09:56:25;98624.09;;;13.51;25.85
550;BME280;20066;48.764;9.176;2023-04-05T09:58:57;98633.66;;;13.73;24.22
550;BME280;20066;48.764;9.176;2023-04-05T10:01:27;98630.16;;;14.49;24.89
550;BME280;20066;48.764;9.176;2023-04-05T10:03:57;98623.44;;;12.26;26.91
550;BME280;20066;48.764;9.176;2023-04-05T10:06:34;98626.34;;;15.93;23.14
550;BME280;20066;48.764;9.176;2023-04-05T10:09:04;98623.19;;;16.29;22.36
550;BME280;20066;48.764;9.176;2023-04-05T10:11:35;98621.97;;;17.46;20.86
550;BME280;20066;48.764;9.176;2023-04-05T10:14:05;98610.91;;;15.26;23.80
550;BME280;20066;48.764;9.176;2023-04-05T10:16:36;98607.16;;;15.47;23.28
550;BME280;20066;48.764;9.176;2023-04-05T10:19:07;98606.31;;;16.87;21.09
550;BME280;20066;48.764;9.176;2023-04-05T10:21:43;98599.22;;;16.93;21.10
550;BME280;20066;48.764;9.176;2023-04-05T10:24:17;98597.72;;;13.80;24.93
550;BME280;20066;48.764;9.176;2023-04-05T10:26:58;98598.13;;;16.17;22.05
550;BME280;20066;48.764;9.176;2023-04-05T10:29:37;98587.72;;;14.36;23.28
550;BME280;20066;48.764;9.176;2023-04-05T10:32:13;98585.97;;;15.00;22.55
550;BME280;20066;48.764;9.176;2023-04-05T10:34:49;98594.09;;;15.72;22.72
550;BME280;20066;48.764;9.176;2023-04-05T10:37:26;98582.91;;;14.98;23.76
550;BME280;20066;48.764;9.176;2023-04-05T10:39:59;98588.44;;;15.59;23.93
550;BME280;20066;48.764;9.176;2023-04-05T10:42:37;98578.03;;;14.38;24.36
550;BME280;20066;48.764;9.176;2023-04-05T10:45:07;98584.09;;;12.75;26.50
550;BME280;20066;48.764;9.176;2023-04-05T10:47:45;98579.28;;;14.71;24.26
550;BME280;20066;48.764;9.176;2023-04-05T10:50:20;98586.63;;;14.22;24.76
550;BME280;20066;48.764;9.176;2023-04-05T10:52:50;98580.63;;;12.99;25.76
550;BME280;20066;48.764;9.176;2023-04-05T10:55:19;98585.44;;;15.16;23.44
550;BME280;20066;48.764;9.176;2023-04-05T10:57:49;98587.09;;;13.30;24.49
550;BME280;20066;48.764;9.176;2023-04-05T11:00:18;98584.91;;;12.54;26.60
550;BME280;20066;48.764;9.176;2023-04-05T11:02:47;98579.09;;;14.48;23.98
550;BME280;20066;48.764;9.176;2023-04-05T11:05:29;98577.25;;;16.11;22.20
550;BME280;20066;48.764;9.176;2023-04-05T11:08:08;98577.50;;;14.54;23.72
550;BME280;20066;48.764;9.176;2023-04-05T11:10:38;98565.63;;;12.10;26.24
550;BME280;20066;48.764;9.176;2023-04-05T11:13:10;98569.28;;;11.41;27.72
550;BME280;20066;48.764;9.176;2023-04-05T11:15:38;98561.44;;;13.70;24.70
550;BME280;20066;48.764;9.176;2023-04-05T11:18:08;98561.91;;;13.58;24.82
550;BME280;20066;48.764;9.176;2023-04-05T11:20:47;98555.00;;;13.46;25.25
550;BME280;20066;48.764;9.176;2023-04-05T11:23:23;98557.44;;;14.51;24.04
550;BME280;20066;48.764;9.176;2023-04-05T11:25:53;98556.66;;;16.40;22.16
550;BME280;20066;48.764;9.176;2023-04-05T11:28:24;98546.16;;;16.66;21.24
550;BME280;20066;48.764;9.176;2023-04-05T11:30:53;98548.75;;;14.22;24.56
550;BME280;20066;48.764;9.176;2023-04-05T11:33:52;98538.25;;;12.01;26.96
550;BME280;20066;48.764;9.176;2023-04-05T11:36:31;98540.56;;;14.33;23.20
550;BME280;20066;48.764;9.176;2023-04-05T11:39:26;98539.84;;;14.25;24.74
550;BME280;20066;48.764;9.176;2023-04-05T11:42:04;98535.28;;;15.35;22.98
550;BME280;20066;48.764;9.176;2023-04-05T11:44:45;98535.25;;;16.69;21.57
550;BME280;20066;48.764;9.176;2023-04-05T11:47:16;98530.41;;;16.57;22.21
550;BME280;20066;48.764;9.176;2023-04-05T11:49:48;98534.06;;;16.47;21.61
550;BME280;20066;48.764;9.176;2023-04-05T11:52:18;98526.50;;;18.58;20.21
550;BME280;20066;48.764;9.176;2023-04-05T11:54:46;98525.97;;;14.68;23.65
550;BME280;20066;48.764;9.176;2023-04-05T11:57:18;98528.28;;;15.03;23.16
550;BME280;20066;48.764;9.176;2023-04-05T11:59:49;98524.81;;;14.65;24.39
550;BME280;20066;48.764;9.176;2023-04-05T12:02:17;98525.28;;;14.57;23.53
550;BME280;20066;48.764;9.176;2023-04-05T12:04:52;98523.19;;;14.75;24.08
550;BME280;20066;48.764;9.176;2023-04-05T12:07:20;98523.56;;;14.74;24.20
550;BME280;20066;48.764;9.176;2023-04-05T12:10:04;98514.94;;;13.97;24.37
550;BME280;20066;48.764;9.176;2023-04-05T12:12:35;98513.56;;;15.04;24.14
550;BME280;20066;48.764;9.176;2023-04-05T12:15:07;98510.13;;;14.63;24.13
550;BME280;20066;48.764;9.176;2023-04-05T12:17:40;98510.56;;;16.60;22.40
550;BME280;20066;48.764;9.176;2023-04-05T12:20:09;98503.53;;;13.68;25.19
550;BME280;20066;48.764;9.176;2023-04-05T12:22:39;98503.88;;;12.93;25.74
550;BME280;20066;48.764;9.176;2023-04-05T12:25:08;98502.97;;;14.83;23.89
550;BME280;20066;48.764;9.176;2023-04-05T12:27:37;98500.47;;;15.33;22.58
550;BME280;20066;48.764;9.176;2023-04-05T12:30:08;98497.41;;;14.15;24.22
550;BME280;20066;48.764;9.176;2023-04-05T12:32:40;98492.66;;;13.78;25.22
550;BME280;20066;48.764;9.176;2023-04-05T12:35:12;98498.31;;;13.98;24.23
550;BME280;20066;48.764;9.176;2023-04-05T12:37:40;98495.50;;;12.49;26.40
550;BME280;20066;48.764;9.176;2023-04-05T12:40:09;98497.47;;;14.12;25.23
550;BME280;20066;48.764;9.176;2023-04-05T12:42:38;98490.41;;;14.62;24.23
550;BME280;20066;48.764;9.176;2023-04-05T12:45:11;98484.53;;;14.30;23.78
550;BME280;20066;48.764;9.176;2023-04-05T12:47:50;98480.81;;;14.92;23.68
550;BME280;20066;48.764;9.176;2023-04-05T12:50:24;98489.84;;;14.78;23.63
550;BME280;20066;48.764;9.176;2023-04-05T12:52:54;98481.44;;;15.37;23.38
550;BME280;20066;48.764;9.176;2023-04-05T12:55:22;98474.50;;;16.36;21.67
550;BME280;20066;48.764;9.176;2023-04-05T12:58:05;98475.41;;;17.12;20.57
550;BME280;20066;48.764;9.176;2023-04-05T13:00:34;98470.28;;;15.85;22.18
550;BME280;20066;48.764;9.176;2023-04-05T13:03:02;98469.06;;;15.90;22.66
550;BME280;20066;48.764;9.176;2023-04-05T13:05:30;98461.72;;;14.31;23.97
550;BME280;20066;48.764;9.176;2023-04-05T13:07:58;98473.28;;;14.73;23.27
550;BME280;20066;48.764;9.176;2023-04-05T13:10:26;98466.41;;;14.27;24.13
550;BME280;20066;48.764;9.176;2023-04-05T13:12:54;98469.16;;;15.83;21.84
550;BME280;20066;48.764;9.176;2023-04-05T13:15:21;98461.25;;;15.68;22.48
550;BME280;20066;48.764;9.176;2023-04-05T13:17:51;98455.00;;;17.40;20.77
550;BME280;20066;48.764;9.176;2023-04-05T13:20:20;98454.91;;;16.88;21.25
550;BME280;20066;48.764;9.176;2023-04-05T13:22:49;98449.97;;;16.83;20.82
550;BME280;20066;48.764;9.176;2023-04-05T13:25:18;98449.13;;;13.62;24.82
550;BME280;20066;48.764;9.176;2023-04-05T13:27:46;98451.63;;;13.90;23.74
550;BME280;20066;48.764;9.176;2023-04-05T13:30:14;98447.69;;;14.77;22.56
550;BME280;20066;48.764;9.176;2023-04-05T13:32:42;98448.09;;;15.10;22.20
550;BME280;20066;48.764;9.176;2023-04-05T13:35:11;98448.44;;;15.92;21.79
550;BME280;20066;48.764;9.176;2023-04-05T13:37:39;98444.22;;;15.91;21.97
550;BME280;20066;48.764;9.176;2023-04-05T13:40:08;98446.47;;;16.63;20.42
550;BME280;20066;48.764;9.176;2023-04-05T13:42:36;98438.06;;;16.96;20.35
550;BME280;20066;48.764;9.176;2023-04-05T13:45:05;98435.41;;;15.60;21.93
550;BME280;20066;48.764;9.176;2023-04-05T13:47:33;98426.03;;;16.15;21.75
550;BME280;20066;48.764;9.176;2023-04-05T13:50:01;98425.03;;;16.88;20.90